Kezdőlap
METAR-TAF:

METAR-TAF

Repülőterek :

Varsó-Modlin Mazóviai repülőtér

Varsó-Modlin, Lengyelország

földrajzi szélesség: 52-27-04N, földrajzi hosszúság: 020-39-06E, magasság: 104 m

Jelenlegi meteorológiai megfigyelések

A jelentés 40 perccel ezelõtt készült, 03:00 UTC
Kelet-északkeleti szél 3 kt
Hőmérséklet 10°C
Páratartalom 93%
Légköri nyomás 1014 hPa
Látótávolság 10 km, vagy több
felhőtlen 1500 m magasságban, és nincs gomolyfelhõ

METAR: EPMO 150300Z 07003KT CAVOK 10/09 Q1014

Idő: 05:40 (03:40 UTC)

Előrejelzés

A jelentés 4 órával és 10 perccel ezelõtt készült, 23:30 UTC
Az előrejelzés 15-én 00 óra UTC és 15-én 24 óra UTC között érvényes
Különbözõ irányokból fújó szél 3 kt
Látótávolság 10 km, vagy több
felhőtlen 1500 m magasságban, és nincs gomolyfelhõ
15-én 05 óra UTC és 15-én 07 óra UTC között fokozatosan kialakuló
Dél-délkeleti szél 10 kt

TAF: EPMO 142330Z 1500/1524 VRB03KT CAVOK BECMG 1505/1507 16010KT

Meteorológiai megfigyelések és előrejelzések több, mint 4000 repülőtéren (METAR és TAF jelentéseket).

A térképen piros és sárga pontok jelzik az elérhető meteorológiai állomásokat.

Mozgassa az egeret a pont fölött, hogy megjelenjen az állomás neve.

Azután kattintson az időjárási megfigyelések és előrejelzések megtekintéséhez.

A térkép megváltoztatása: kattintson a fekete keresztel jelölt zöld gombra ráközelítéshez, a vonallal jelölt zöld gombra távolításhoz, vagy a zöld nyilakra a szomszédos térképek eléréséhez.


METAR-TAF: